Time;durP1;ratioP1;P1;durP2;ratioP2;P2;SDS_P1;SDS_P2;PMS_P1;PMS_P2;Temp;Humidity;BMP_temperature;BMP_pressure;BME280_temperature;BME280_humidity;BME280_pressure;Samples;Min_cycle;Max_cycle;Signal;HPM_P1;HPM_P2
2021/11/13 00:03:01;;;;;;;16.38;9.70;;;;;;;;;;10378107;28;20044;-81
2021/11/13 00:08:03;;;;;;;15.63;10.18;;;;;;;;;;10358869;28;20033;-81
2021/11/13 00:13:06;;;;;;;17.27;11.20;;;;;;;;;;10353398;28;20134;-80
2021/11/13 00:18:07;;;;;;;18.45;11.60;;;;;;;;;;10342030;28;20065;-81
2021/11/13 00:23:08;;;;;;;20.42;11.27;;;;;;;;;;10346829;28;20071;-81
2021/11/13 00:28:09;;;;;;;17.20;10.88;;;;;;;;;;10368854;23;20057;-81
2021/11/13 00:33:09;;;;;;;23.08;11.32;;;;;;;;;;10392795;28;20032;-80
2021/11/13 00:38:10;;;;;;;16.40;10.68;;;;;;;;;;10386432;28;20034;-80
2021/11/13 00:43:10;;;;;;;21.05;11.32;;;;;;;;;;10389491;28;20113;-81
2021/11/13 00:48:11;;;;;;;18.08;10.63;;;;;;;;;;10382583;28;20101;-81
2021/11/13 00:53:11;;;;;;;16.87;10.47;;;;;;;;;;10393181;28;20101;-81
2021/11/13 00:58:11;;;;;;;15.80;11.33;;;;;;;;;;10414620;28;20467;-81
2021/11/13 01:03:12;;;;;;;13.98;10.77;;;;;;;;;;10417111;28;20432;-83
2021/11/13 01:08:12;;;;;;;19.23;11.20;;;;;;;;;;10416874;28;20060;-78
2021/11/13 01:13:13;;;;;;;17.95;10.57;;;;;;;;;;10417481;28;20053;-78
2021/11/13 01:18:13;;;;;;;16.45;10.13;;;;;;;;;;10416685;28;20029;-78
2021/11/13 01:23:15;;;;;;;25.50;10.65;;;;;;;;;;10402881;28;20099;-78
2021/11/13 01:28:15;;;;;;;16.27;10.93;;;;;;;;;;10416491;28;20060;-78
2021/11/13 01:33:16;;;;;;;18.58;10.20;;;;;;;;;;10414589;28;20376;-78
2021/11/13 01:38:17;;;;;;;21.98;10.77;;;;;;;;;;10417166;28;20029;-78
2021/11/13 01:43:17;;;;;;;15.65;9.82;;;;;;;;;;10416192;28;20043;-78
2021/11/13 01:48:18;;;;;;;17.00;9.80;;;;;;;;;;10412900;28;20029;-78
2021/11/13 01:53:18;;;;;;;16.02;9.88;;;;;;;;;;10416877;28;20784;-77
2021/11/13 01:58:19;;;;;;;12.95;9.10;;;;;;;;;;10415751;28;20526;-78
2021/11/13 02:03:21;;;;;;;17.80;9.65;;;;;;;;;;10416863;28;20375;-77
2021/11/13 02:08:22;;;;;;;13.48;9.32;;;;;;;;;;10417467;28;20104;-77
2021/11/13 02:13:22;;;;;;;14.77;9.93;;;;;;;;;;10417981;28;20112;-78
2021/11/13 02:18:23;;;;;;;12.47;9.23;;;;;;;;;;10414272;28;20033;-77
2021/11/13 02:23:24;;;;;;;15.33;9.43;;;;;;;;;;10414974;28;20435;-77
2021/11/13 02:28:26;;;;;;;13.23;9.60;;;;;;;;;;10416242;28;21077;-77
2021/11/13 02:33:26;;;;;;;15.43;9.38;;;;;;;;;;10415132;28;20031;-76
2021/11/13 02:38:32;;;;;;;13.43;8.68;;;;;;;;;;10414496;28;20029;-77
2021/11/13 02:43:33;;;;;;;13.98;8.70;;;;;;;;;;10413680;28;20033;-77
2021/11/13 02:48:37;;;;;;;12.93;8.82;;;;;;;;;;10409287;28;20344;-77
2021/11/13 02:53:38;;;;;;;16.63;9.23;;;;;;;;;;10410273;28;20075;-77
2021/11/13 02:58:39;;;;;;;13.60;9.43;;;;;;;;;;10412618;28;20482;-77
2021/11/13 03:03:39;;;;;;;17.25;9.48;;;;;;;;;;10413673;28;20025;-77
2021/11/13 03:08:41;;;;;;;12.60;9.05;;;;;;;;;;10412191;28;20383;-77
2021/11/13 03:13:44;;;;;;;14.60;8.63;;;;;;;;;;10414074;28;20040;-77
2021/11/13 03:18:45;;;;;;;13.50;8.75;;;;;;;;;;10413835;28;20022;-77
2021/11/13 03:23:47;;;;;;;11.93;8.38;;;;;;;;;;10413791;28;20025;-77
2021/11/13 03:28:51;;;;;;;12.07;8.88;;;;;;;;;;10412652;28;20046;-77
2021/11/13 03:33:52;;;;;;;13.43;8.18;;;;;;;;;;10419161;28;20025;-77
2021/11/13 03:38:53;;;;;;;13.73;8.80;;;;;;;;;;10421875;28;20025;-78
2021/11/13 03:43:53;;;;;;;10.27;8.00;;;;;;;;;;10422273;28;20470;-77
2021/11/13 03:48:54;;;;;;;13.30;7.90;;;;;;;;;;10417645;28;20033;-77
2021/11/13 03:53:54;;;;;;;11.53;8.43;;;;;;;;;;10419731;28;20915;-77
2021/11/13 03:58:54;;;;;;;11.00;7.70;;;;;;;;;;10426141;28;20460;-77
2021/11/13 04:03:55;;;;;;;12.40;8.30;;;;;;;;;;10408045;28;20770;-77
2021/11/13 04:08:56;;;;;;;13.18;7.38;;;;;;;;;;10408998;28;20496;-77
2021/11/13 04:13:56;;;;;;;10.35;7.82;;;;;;;;;;10409775;28;20525;-78
2021/11/13 04:18:57;;;;;;;10.75;7.90;;;;;;;;;;10415655;28;20494;-77
2021/11/13 04:23:57;;;;;;;11.38;8.30;;;;;;;;;;10435940;28;20056;-77
2021/11/13 04:28:57;;;;;;;11.60;7.87;;;;;;;;;;10420170;28;20452;-77
2021/11/13 04:34:01;;;;;;;9.73;7.25;;;;;;;;;;10419614;28;20457;-77
2021/11/13 04:39:07;;;;;;;11.75;7.75;;;;;;;;;;10415097;28;20037;-77
2021/11/13 04:44:07;;;;;;;8.35;7.35;;;;;;;;;;10410494;28;20108;-77
2021/11/13 04:49:08;;;;;;;9.82;7.28;;;;;;;;;;10405156;28;20104;-77
2021/11/13 04:54:08;;;;;;;9.43;7.20;;;;;;;;;;10418278;28;20029;-77
2021/11/13 04:59:09;;;;;;;11.48;7.90;;;;;;;;;;10409653;28;20969;-77
2021/11/13 05:04:09;;;;;;;14.60;7.55;;;;;;;;;;10418538;28;20032;-77
2021/11/13 05:09:10;;;;;;;11.40;7.33;;;;;;;;;;10418017;28;20029;-77
2021/11/13 05:14:10;;;;;;;12.75;7.72;;;;;;;;;;10418402;28;20577;-77
2021/11/13 05:19:10;;;;;;;11.30;7.73;;;;;;;;;;10408087;28;20037;-77
2021/11/13 05:24:11;;;;;;;9.07;6.82;;;;;;;;;;10418587;28;20475;-77
2021/11/13 05:29:11;;;;;;;8.65;7.07;;;;;;;;;;10415282;28;20471;-77
2021/11/13 05:34:13;;;;;;;11.97;7.10;;;;;;;;;;10408880;28;20029;-77
2021/11/13 05:39:14;;;;;;;10.75;7.50;;;;;;;;;;10408699;28;20451;-78
2021/11/13 05:44:14;;;;;;;11.05;7.28;;;;;;;;;;10411566;28;20455;-77
2021/11/13 05:49:15;;;;;;;9.87;7.00;;;;;;;;;;10417159;28;20091;-77
2021/11/13 05:54:15;;;;;;;8.20;6.50;;;;;;;;;;10406122;28;20469;-77
2021/11/13 05:59:16;;;;;;;9.40;7.07;;;;;;;;;;10416966;28;20053;-77
2021/11/13 06:04:16;;;;;;;10.57;6.90;;;;;;;;;;10416220;28;20466;-77
2021/11/13 06:09:16;;;;;;;12.07;8.40;;;;;;;;;;10415852;28;20033;-77
2021/11/13 06:14:17;;;;;;;11.97;8.47;;;;;;;;;;10415375;28;21034;-78
2021/11/13 06:19:17;;;;;;;13.20;12.00;;;;;;;;;;10416019;28;20099;-77
2021/11/13 06:24:17;;;;;;;13.97;12.63;;;;;;;;;;10413966;28;20455;-77
2021/11/13 06:29:18;;;;;;;10.13;8.90;;;;;;;;;;10412054;28;20041;-77
2021/11/13 06:34:18;;;;;;;9.23;8.17;;;;;;;;;;10414870;28;20589;-80
2021/11/13 06:39:19;;;;;;;10.73;8.27;;;;;;;;;;10414054;28;20431;-80
2021/11/13 06:44:19;;;;;;;19.90;9.57;;;;;;;;;;10412064;28;20813;-82
2021/11/13 06:49:20;;;;;;;14.00;9.77;;;;;;;;;;10412137;28;20045;-82
2021/11/13 06:54:20;;;;;;;13.63;10.23;;;;;;;;;;10414212;28;20470;-83
2021/11/13 06:59:21;;;;;;;15.55;11.00;;;;;;;;;;10413283;28;20083;-83
2021/11/13 07:04:21;;;;;;;24.33;10.95;;;;;;;;;;10414830;28;20494;-84
2021/11/13 07:09:21;;;;;;;16.55;11.45;;;;;;;;;;10411740;28;20120;-84
2021/11/13 07:14:22;;;;;;;17.87;11.57;;;;;;;;;;10414049;28;20542;-82
2021/11/13 07:19:23;;;;;;;16.95;11.98;;;;;;;;;;10412141;28;20548;-82
2021/11/13 07:24:24;;;;;;;22.03;13.33;;;;;;;;;;10413045;28;20083;-82
2021/11/13 07:29:25;;;;;;;24.90;13.85;;;;;;;;;;10413103;28;20852;-82
2021/11/13 07:34:26;;;;;;;20.75;14.32;;;;;;;;;;10394249;28;20087;-83
2021/11/13 07:39:26;;;;;;;25.60;14.73;;;;;;;;;;10382064;28;20426;-83
2021/11/13 07:44:26;;;;;;;24.83;14.70;;;;;;;;;;10374532;28;20460;-83
2021/11/13 07:49:27;;;;;;;20.33;14.33;;;;;;;;;;10375678;28;20438;-83
2021/11/13 07:54:27;;;;;;;24.15;15.32;;;;;;;;;;10376648;28;20829;-83
2021/11/13 07:59:28;;;;;;;25.75;16.02;;;;;;;;;;10377583;28;20105;-83
2021/11/13 08:04:28;;;;;;;26.40;14.85;;;;;;;;;;10377391;28;20025;-82
2021/11/13 08:09:29;;;;;;;25.00;14.33;;;;;;;;;;10381308;28;20045;-83
2021/11/13 08:14:29;;;;;;;27.03;14.90;;;;;;;;;;10384604;28;20495;-83
2021/11/13 08:19:29;;;;;;;58.08;17.13;;;;;;;;;;10388644;28;20459;-83
2021/11/13 08:24:30;;;;;;;30.17;16.07;;;;;;;;;;10393414;28;20041;-83
2021/11/13 08:29:30;;;;;;;30.53;17.13;;;;;;;;;;10382590;28;20495;-84
2021/11/13 08:34:31;;;;;;;32.67;16.50;;;;;;;;;;10383780;28;20482;-83
2021/11/13 08:39:35;;;;;;;32.17;18.37;;;;;;;;;;10385573;28;20439;-83
2021/11/13 08:44:36;;;;;;;35.15;18.30;;;;;;;;;;10381619;28;20451;-83
2021/11/13 08:49:44;;;;;;;49.17;17.67;;;;;;;;;;10411682;28;20048;-83
2021/11/13 08:54:49;;;;;;;32.13;17.75;;;;;;;;;;10415854;28;20043;-85
2021/11/13 08:59:49;;;;;;;44.60;18.83;;;;;;;;;;10406909;28;20095;-85
2021/11/13 09:04:50;;;;;;;38.28;19.15;;;;;;;;;;10406544;28;20107;-85
2021/11/13 09:09:51;;;;;;;37.65;19.40;;;;;;;;;;10400388;28;20030;-85
2021/11/13 09:14:53;;;;;;;37.28;19.15;;;;;;;;;;10417159;28;20371;-85
2021/11/13 09:19:54;;;;;;;44.22;20.38;;;;;;;;;;10421236;28;20033;-81
2021/11/13 09:24:55;;;;;;;37.83;19.50;;;;;;;;;;10421119;28;20033;-82
2021/11/13 09:29:55;;;;;;;38.38;19.67;;;;;;;;;;10414450;28;20359;-82
2021/11/13 09:34:57;;;;;;;46.35;18.90;;;;;;;;;;10408736;28;20038;-82
2021/11/13 09:40:00;;;;;;;39.10;19.02;;;;;;;;;;10417278;28;20030;-81
2021/11/13 09:45:00;;;;;;;31.08;19.88;;;;;;;;;;10415047;28;20048;-80
2021/11/13 09:50:02;;;;;;;35.40;20.42;;;;;;;;;;10417219;28;20033;-83
2021/11/13 09:55:06;;;;;;;34.13;20.42;;;;;;;;;;10413782;28;20037;-81
2021/11/13 10:00:13;;;;;;;40.28;20.00;;;;;;;;;;10415859;28;20029;-81
2021/11/13 10:05:14;;;;;;;37.38;18.70;;;;;;;;;;10416194;28;20064;-82
2021/11/13 10:10:33;;;;;;;38.35;19.48;;;;;;;;;;10414640;28;20037;-80
2021/11/13 10:15:38;;;;;;;41.47;19.75;;;;;;;;;;10412797;28;20035;-80
2021/11/13 10:21:02;;;;;;;32.15;18.60;;;;;;;;;;10408309;28;20033;-80
2021/11/13 10:26:14;;;;;;;39.75;17.95;;;;;;;;;;10403616;28;20432;-80
2021/11/13 10:31:29;;;;;;;37.63;18.20;;;;;;;;;;10412089;28;20063;-80
2021/11/13 10:36:32;;;;;;;29.60;18.10;;;;;;;;;;10412370;28;20036;-80
2021/11/13 10:41:51;;;;;;;32.50;16.98;;;;;;;;;;10412302;28;20025;-80
2021/11/13 10:46:52;;;;;;;27.67;17.05;;;;;;;;;;10413256;28;20029;-80
2021/11/13 10:51:55;;;;;;;29.00;16.23;;;;;;;;;;10405829;28;20035;-81
2021/11/13 10:57:01;;;;;;;33.97;17.20;;;;;;;;;;10411932;28;20039;-80
2021/11/13 11:02:05;;;;;;;28.38;16.73;;;;;;;;;;10413098;28;20037;-80
2021/11/13 11:07:08;;;;;;;31.17;16.38;;;;;;;;;;10408094;28;20460;-80
2021/11/13 11:12:18;;;;;;;26.63;16.00;;;;;;;;;;10405833;28;20463;-80
2021/11/13 11:17:21;;;;;;;24.15;14.77;;;;;;;;;;10402291;28;20414;-80
2021/11/13 11:22:25;;;;;;;29.33;15.18;;;;;;;;;;10418657;28;20061;-79
2021/11/13 11:27:26;;;;;;;24.70;14.75;;;;;;;;;;10414278;28;20056;-79
2021/11/13 11:32:46;;;;;;;27.97;15.00;;;;;;;;;;10420280;28;20471;-79
2021/11/13 11:38:00;;;;;;;26.63;15.00;;;;;;;;;;10405981;28;20056;-79
2021/11/13 11:43:01;;;;;;;35.30;15.48;;;;;;;;;;10410830;28;20079;-79
2021/11/13 11:48:06;;;;;;;21.70;14.00;;;;;;;;;;10411131;28;20430;-79
2021/11/13 11:53:11;;;;;;;25.27;14.93;;;;;;;;;;10415565;28;20044;-78
2021/11/13 11:58:14;;;;;;;25.10;15.23;;;;;;;;;;10414037;28;20041;-78
2021/11/13 12:03:35;;;;;;;26.70;14.38;;;;;;;;;;10403065;28;20463;-79
2021/11/13 12:08:35;;;;;;;23.88;14.88;;;;;;;;;;10414469;28;20033;-79
2021/11/13 12:13:35;;;;;;;21.63;13.87;;;;;;;;;;10417850;28;20040;-79
2021/11/13 12:18:44;;;;;;;20.23;13.57;;;;;;;;;;10402734;28;20479;-79
2021/11/13 12:23:48;;;;;;;22.97;14.20;;;;;;;;;;10414307;28;20447;-78
2021/11/13 12:28:51;;;;;;;23.08;13.77;;;;;;;;;;10450853;23;20072;-79
2021/11/13 12:34:00;;;;;;;23.08;13.88;;;;;;;;;;10373332;28;20120;-79
2021/11/13 12:39:07;;;;;;;24.33;14.85;;;;;;;;;;10373372;28;20049;-79
2021/11/13 12:44:12;;;;;;;26.52;13.73;;;;;;;;;;10377851;28;20494;-79
2021/11/13 12:49:25;;;;;;;23.23;14.70;;;;;;;;;;10383035;28;20472;-80
2021/11/13 12:54:32;;;;;;;21.63;14.30;;;;;;;;;;10377801;28;20025;-80
2021/11/13 12:59:35;;;;;;;24.95;13.43;;;;;;;;;;10375828;28;20060;-82
2021/11/13 13:04:38;;;;;;;29.33;13.40;;;;;;;;;;10376185;28;20046;-82
2021/11/13 13:09:53;;;;;;;26.90;11.95;;;;;;;;;;10378650;28;20048;-82
2021/11/13 13:14:57;;;;;;;51.50;14.73;;;;;;;;;;10378721;28;20080;-81
2021/11/13 13:19:57;;;;;;;33.42;13.68;;;;;;;;;;10373562;28;20033;-83
2021/11/13 13:25:00;;;;;;;33.60;14.60;;;;;;;;;;10373480;28;20105;-83
2021/11/13 13:30:05;;;;;;;36.17;13.88;;;;;;;;;;10380457;28;20050;-82
2021/11/13 13:35:13;;;;;;;26.33;14.20;;;;;;;;;;10378057;28;20036;-84
2021/11/13 13:40:32;;;;;;;23.92;13.38;;;;;;;;;;10376665;28;20061;-79
2021/11/13 13:45:32;;;;;;;33.90;14.70;;;;;;;;;;10363527;28;20064;-82
2021/11/13 13:50:33;;;;;;;30.27;14.83;;;;;;;;;;10375529;28;20041;-82
2021/11/13 13:55:38;;;;;;;29.02;14.93;;;;;;;;;;10375863;28;20030;-82
2021/11/13 14:00:41;;;;;;;31.92;15.65;;;;;;;;;;10368930;28;20045;-84
2021/11/13 14:05:41;;;;;;;27.15;15.00;;;;;;;;;;10379815;28;20108;-83
2021/11/13 14:10:46;;;;;;;29.43;15.67;;;;;;;;;;10379595;28;20091;-82
2021/11/13 14:15:54;;;;;;;32.55;14.57;;;;;;;;;;10377129;28;20521;-82
2021/11/13 14:20:55;;;;;;;38.40;15.93;;;;;;;;;;10376017;28;20045;-82
2021/11/13 14:25:58;;;;;;;28.38;15.25;;;;;;;;;;10376434;28;20045;-82
2021/11/13 14:31:00;;;;;;;25.80;13.75;;;;;;;;;;10375572;28;20136;-81
2021/11/13 14:36:00;;;;;;;26.40;15.35;;;;;;;;;;10375527;28;20471;-82
2021/11/13 14:41:05;;;;;;;20.42;15.00;;;;;;;;;;10374293;28;20037;-81
2021/11/13 14:46:18;;;;;;;24.27;15.35;;;;;;;;;;10374952;28;20042;-82
2021/11/13 14:51:23;;;;;;;32.10;16.02;;;;;;;;;;10375679;28;20030;-81
2021/11/13 14:56:28;;;;;;;27.92;15.63;;;;;;;;;;10375215;28;20038;-80
2021/11/13 15:01:31;;;;;;;23.73;15.30;;;;;;;;;;10374977;28;20022;-83
2021/11/13 15:06:32;;;;;;;31.50;15.52;;;;;;;;;;10374793;28;20052;-81
2021/11/13 15:11:34;;;;;;;34.55;17.13;;;;;;;;;;10374024;28;20029;-81
2021/11/13 15:16:35;;;;;;;34.95;17.95;;;;;;;;;;10374728;28;20032;-82
2021/11/13 15:21:40;;;;;;;37.05;19.67;;;;;;;;;;10373743;28;20117;-82
2021/11/13 15:26:40;;;;;;;33.95;20.33;;;;;;;;;;10374085;28;20042;-81
2021/11/13 15:31:46;;;;;;;41.03;22.33;;;;;;;;;;10374145;28;20022;-82
2021/11/13 15:36:59;;;;;;;39.42;22.55;;;;;;;;;;10373215;28;20435;-82
2021/11/13 15:42:12;;;;;;;39.67;22.00;;;;;;;;;;10373598;28;20026;-82
2021/11/13 15:47:15;;;;;;;45.78;23.65;;;;;;;;;;10370137;28;20021;-82
2021/11/13 15:52:18;;;;;;;37.80;23.17;;;;;;;;;;10370932;28;20087;-82
2021/11/13 15:57:19;;;;;;;37.28;23.08;;;;;;;;;;10368678;28;20495;-82
2021/11/13 16:02:19;;;;;;;34.67;23.30;;;;;;;;;;10370339;28;20054;-82
2021/11/13 16:07:20;;;;;;;45.90;21.80;;;;;;;;;;10370855;28;20442;-82
2021/11/13 16:12:20;;;;;;;36.33;22.07;;;;;;;;;;10371276;28;21011;-82
2021/11/13 16:17:21;;;;;;;37.50;21.80;;;;;;;;;;10372952;28;20468;-82
2021/11/13 16:22:21;;;;;;;36.38;21.35;;;;;;;;;;10372675;28;20466;-82
2021/11/13 16:27:22;;;;;;;32.75;19.85;;;;;;;;;;10369999;28;20125;-82
2021/11/13 16:32:22;;;;;;;32.17;19.37;;;;;;;;;;10371598;28;20373;-82
2021/11/13 16:37:23;;;;;;;33.50;19.60;;;;;;;;;;10362567;28;20466;-82
2021/11/13 16:42:23;;;;;;;47.45;20.38;;;;;;;;;;10378122;28;20036;-79
2021/11/13 16:47:23;;;;;;;30.47;19.20;;;;;;;;;;10377969;28;20034;-79
2021/11/13 16:52:24;;;;;;;33.80;19.17;;;;;;;;;;10374799;28;20479;-78
2021/11/13 16:57:24;;;;;;;35.50;19.42;;;;;;;;;;10376548;28;20452;-79
2021/11/13 17:02:25;;;;;;;26.43;17.83;;;;;;;;;;10376983;28;20038;-79
2021/11/13 17:07:25;;;;;;;33.03;17.23;;;;;;;;;;10376263;28;20022;-79
2021/11/13 17:12:25;;;;;;;29.38;17.27;;;;;;;;;;10377770;28;20056;-78
2021/11/13 17:17:26;;;;;;;30.77;17.00;;;;;;;;;;10376637;28;20080;-78
2021/11/13 17:22:27;;;;;;;23.25;15.82;;;;;;;;;;10376542;28;20454;-78
2021/11/13 17:27:27;;;;;;;26.92;16.38;;;;;;;;;;10376324;28;20053;-78
2021/11/13 17:32:28;;;;;;;28.27;16.50;;;;;;;;;;10377180;28;20033;-78
2021/11/13 17:37:28;;;;;;;28.25;16.10;;;;;;;;;;10376798;28;20034;-78
2021/11/13 17:42:28;;;;;;;22.93;15.33;;;;;;;;;;10373387;28;20072;-79
2021/11/13 17:47:29;;;;;;;24.30;15.03;;;;;;;;;;10385178;28;20478;-78
2021/11/13 17:52:29;;;;;;;21.63;15.13;;;;;;;;;;10375610;28;20022;-78
2021/11/13 17:57:30;;;;;;;25.75;14.93;;;;;;;;;;10379470;28;20459;-78
2021/11/13 18:02:30;;;;;;;25.98;14.55;;;;;;;;;;10381189;28;20392;-78
2021/11/13 18:07:35;;;;;;;23.65;14.45;;;;;;;;;;10363502;28;20091;-78
2021/11/13 18:12:36;;;;;;;22.92;13.63;;;;;;;;;;10354372;28;20026;-79
2021/11/13 18:17:36;;;;;;;20.05;13.80;;;;;;;;;;10356685;28;20034;-78
2021/11/13 18:22:41;;;;;;;20.40;13.27;;;;;;;;;;10353794;28;20506;-78
2021/11/13 18:27:42;;;;;;;18.38;12.77;;;;;;;;;;10353360;28;20482;-77
2021/11/13 18:32:42;;;;;;;20.55;12.57;;;;;;;;;;10378889;28;20037;-78
2021/11/13 18:37:43;;;;;;;20.00;11.98;;;;;;;;;;10381706;28;20034;-78
2021/11/13 18:42:44;;;;;;;19.13;13.35;;;;;;;;;;10375323;28;20025;-78
2021/11/13 18:47:45;;;;;;;30.48;13.32;;;;;;;;;;10385672;28;20380;-78
2021/11/13 18:52:45;;;;;;;28.60;14.63;;;;;;;;;;10381779;28;20034;-78
2021/11/13 18:57:48;;;;;;;29.58;14.85;;;;;;;;;;10386371;28;20045;-78
2021/11/13 19:02:49;;;;;;;21.88;12.98;;;;;;;;;;10387016;28;20036;-78
2021/11/13 19:07:49;;;;;;;20.80;12.52;;;;;;;;;;10376088;28;20038;-77
2021/11/13 19:12:50;;;;;;;30.27;12.60;;;;;;;;;;10371736;28;20060;-78
2021/11/13 19:17:51;;;;;;;26.40;12.93;;;;;;;;;;10372891;28;20034;-77
2021/11/13 19:22:51;;;;;;;30.05;12.90;;;;;;;;;;10373984;28;20026;-78
2021/11/13 19:27:52;;;;;;;25.02;12.25;;;;;;;;;;10373420;28;20053;-78
2021/11/13 19:32:52;;;;;;;25.88;13.52;;;;;;;;;;10373524;28;20034;-78
2021/11/13 19:37:54;;;;;;;20.33;12.73;;;;;;;;;;10374013;28;20038;-78
2021/11/13 19:42:55;;;;;;;21.30;11.82;;;;;;;;;;10373784;28;20030;-78
2021/11/13 19:47:56;;;;;;;24.20;12.35;;;;;;;;;;10373881;28;20034;-78
2021/11/13 19:52:57;;;;;;;17.38;11.65;;;;;;;;;;10376644;28;20045;-78
2021/11/13 19:57:58;;;;;;;23.70;12.68;;;;;;;;;;10375800;28;20149;-78
2021/11/13 20:03:03;;;;;;;24.00;11.50;;;;;;;;;;10376960;28;20184;-78
2021/11/13 20:08:05;;;;;;;20.00;11.13;;;;;;;;;;10373628;28;20530;-78
2021/11/13 20:13:07;;;;;;;22.25;12.30;;;;;;;;;;10374240;28;20502;-78
2021/11/13 20:18:07;;;;;;;23.33;12.38;;;;;;;;;;10381458;28;20029;-78
2021/11/13 20:23:08;;;;;;;25.10;12.50;;;;;;;;;;10381282;28;20025;-78
2021/11/13 20:28:09;;;;;;;23.75;12.55;;;;;;;;;;10380954;28;20053;-78
2021/11/13 20:33:09;;;;;;;17.35;11.55;;;;;;;;;;10380158;28;20464;-78
2021/11/13 20:38:13;;;;;;;21.17;11.38;;;;;;;;;;10380663;28;20029;-78
2021/11/13 20:43:15;;;;;;;19.67;12.13;;;;;;;;;;10380662;28;20061;-78
2021/11/13 20:48:15;;;;;;;19.17;11.57;;;;;;;;;;10380017;28;20038;-78
2021/11/13 20:53:16;;;;;;;19.17;11.73;;;;;;;;;;10380320;28;20030;-78
2021/11/13 20:58:16;;;;;;;18.90;10.88;;;;;;;;;;10379706;28;20037;-78
2021/11/13 21:03:16;;;;;;;21.02;11.43;;;;;;;;;;10379907;28;20030;-78
2021/11/13 21:08:17;;;;;;;20.47;11.53;;;;;;;;;;10378743;28;20403;-78
2021/11/13 21:13:18;;;;;;;16.25;10.93;;;;;;;;;;10379081;28;20455;-78
2021/11/13 21:18:19;;;;;;;16.83;11.35;;;;;;;;;;10378182;28;20038;-78
2021/11/13 21:23:19;;;;;;;19.23;11.15;;;;;;;;;;10378767;28;20030;-78
2021/11/13 21:28:21;;;;;;;21.83;11.38;;;;;;;;;;10377682;28;20046;-78
2021/11/13 21:33:21;;;;;;;19.42;11.18;;;;;;;;;;10376244;28;20026;-78
2021/11/13 21:38:21;;;;;;;23.98;11.48;;;;;;;;;;10371601;28;20030;-78
2021/11/13 21:43:23;;;;;;;23.00;12.30;;;;;;;;;;10370698;28;20084;-78
2021/11/13 21:48:23;;;;;;;17.73;11.02;;;;;;;;;;10368249;28;20463;-78
2021/11/13 21:53:24;;;;;;;22.10;11.70;;;;;;;;;;10371976;28;20468;-78
2021/11/13 21:58:29;;;;;;;20.70;10.73;;;;;;;;;;10369067;28;20026;-78
2021/11/13 22:03:30;;;;;;;19.88;10.90;;;;;;;;;;10375304;28;20462;-78
2021/11/13 22:08:31;;;;;;;20.92;11.65;;;;;;;;;;10376972;28;20040;-78
2021/11/13 22:13:33;;;;;;;20.60;11.10;;;;;;;;;;10373459;28;20372;-78
2021/11/13 22:18:33;;;;;;;18.73;11.32;;;;;;;;;;10370655;28;20034;-78
2021/11/13 22:23:34;;;;;;;15.98;10.88;;;;;;;;;;10366605;28;20044;-78
2021/11/13 22:28:34;;;;;;;19.30;11.20;;;;;;;;;;10374492;28;20046;-78
2021/11/13 22:33:35;;;;;;;17.83;11.05;;;;;;;;;;10373931;28;20116;-78
2021/11/13 22:38:36;;;;;;;16.10;10.93;;;;;;;;;;10374194;28;20022;-78
2021/11/13 22:43:36;;;;;;;20.73;11.33;;;;;;;;;;10375155;28;20044;-78
2021/11/13 22:48:37;;;;;;;16.43;11.40;;;;;;;;;;10375328;28;20451;-78
2021/11/13 22:53:40;;;;;;;19.02;11.15;;;;;;;;;;10374859;28;20488;-78
2021/11/13 22:58:41;;;;;;;12.88;9.80;;;;;;;;;;10374319;28;20033;-78
2021/11/13 23:03:47;;;;;;;16.35;11.15;;;;;;;;;;10374923;28;20140;-78
2021/11/13 23:08:49;;;;;;;15.52;10.23;;;;;;;;;;10374516;28;20116;-78
2021/11/13 23:13:50;;;;;;;19.42;10.45;;;;;;;;;;10372519;28;20448;-78
2021/11/13 23:18:52;;;;;;;13.57;9.85;;;;;;;;;;10374036;28;20030;-78
2021/11/13 23:23:53;;;;;;;18.10;10.80;;;;;;;;;;10375571;28;20411;-78
2021/11/13 23:28:53;;;;;;;17.08;10.55;;;;;;;;;;10373651;28;20042;-78
2021/11/13 23:33:54;;;;;;;18.73;10.33;;;;;;;;;;10373223;28;20430;-78
2021/11/13 23:38:55;;;;;;;14.25;10.43;;;;;;;;;;10373884;28;20467;-78
2021/11/13 23:43:55;;;;;;;17.02;9.88;;;;;;;;;;10370174;28;20034;-78
2021/11/13 23:48:56;;;;;;;19.70;10.63;;;;;;;;;;10376966;28;20037;-78
2021/11/13 23:53:56;;;;;;;18.60;10.40;;;;;;;;;;10378139;28;20455;-78
2021/11/13 23:58:57;;;;;;;17.90;10.65;;;;;;;;;;10376168;28;20026;-78
